Childress Municipal Airport Childress US
ICAO: KCDS
IATA: CDS
Category: Medium
Scheduled Services: No

Elevation: 1954 ft
TransAlt. 18000 ft.

Airport Communications:
ASOS:135.125
FORT WORTH CNTR:133.5
FORT WORTH RDO:122.45
CTAF/UNICOM:122.8

KCDS Zoom In..

Runways:

(A) RW 04 length 4425 ft width 60 ft
---- / hdg 41

(B) RW 18 length 5949 ft width 75 ft
---- / hdg 176

(C) RW 22 length 4425 ft width 60 ft
---- / hdg 221

(D) RW 36 length 5949 ft width 75 ft
---- / hdg 356

Location; KCDS
Day. 23 / Time. 21.53 Zulu
* Altimeter: 30.27
* Temperature: 12° c. 53.6°f.
* Wind from: 240° Speed 03 kn.
Dewpoint: -14° c.
Visibility: 10 Statute Miles.
Clouds: Clear (automated report).

KCDS 232153Z AUTO 24003KT 10SM CLR 12/M14 A3027 RMK AO2 SLP253 T01221139


Wind From 240°
Speed 03 kn.

YouTube Music Video
 
jpsmedia.com for Web Design  worldairports.se 2018   terms of use